sensor_id;sensor_type;location;lat;lon;timestamp;temperature;humidity
19813;DHT22;10066;48.108;11.448;2023-07-02T00:02:07;17.30;99.90
19813;DHT22;10066;48.108;11.448;2023-07-02T00:04:34;17.40;99.90
19813;DHT22;10066;48.108;11.448;2023-07-02T00:07:03;17.40;99.90
19813;DHT22;10066;48.108;11.448;2023-07-02T00:09:30;17.30;99.90
19813;DHT22;10066;48.108;11.448;2023-07-02T00:11:57;17.40;99.90
19813;DHT22;10066;48.108;11.448;2023-07-02T00:14:24;17.30;99.90
19813;DHT22;10066;48.108;11.448;2023-07-02T00:16:51;17.30;99.90
19813;DHT22;10066;48.108;11.448;2023-07-02T00:19:18;17.30;99.90
19813;DHT22;10066;48.108;11.448;2023-07-02T00:21:45;17.30;99.90
19813;DHT22;10066;48.108;11.448;2023-07-02T00:24:14;17.30;99.90
19813;DHT22;10066;48.108;11.448;2023-07-02T00:26:41;17.30;99.90
19813;DHT22;10066;48.108;11.448;2023-07-02T00:29:09;17.40;99.90
19813;DHT22;10066;48.108;11.448;2023-07-02T00:31:36;17.30;99.90
19813;DHT22;10066;48.108;11.448;2023-07-02T00:34:03;17.40;99.90
19813;DHT22;10066;48.108;11.448;2023-07-02T00:36:30;17.40;99.90
19813;DHT22;10066;48.108;11.448;2023-07-02T00:38:58;17.40;99.90
19813;DHT22;10066;48.108;11.448;2023-07-02T00:41:26;17.40;99.90
19813;DHT22;10066;48.108;11.448;2023-07-02T00:43:53;17.40;99.90
19813;DHT22;10066;48.108;11.448;2023-07-02T00:46:22;17.40;99.90
19813;DHT22;10066;48.108;11.448;2023-07-02T00:48:51;17.40;99.90
19813;DHT22;10066;48.108;11.448;2023-07-02T00:51:21;17.40;99.90
19813;DHT22;10066;48.108;11.448;2023-07-02T00:53:50;17.40;99.90
19813;DHT22;10066;48.108;11.448;2023-07-02T00:56:18;17.40;99.90
19813;DHT22;10066;48.108;11.448;2023-07-02T00:58:47;17.40;99.90
19813;DHT22;10066;48.108;11.448;2023-07-02T01:01:16;17.30;99.90
19813;DHT22;10066;48.108;11.448;2023-07-02T01:03:51;17.40;99.90
19813;DHT22;10066;48.108;11.448;2023-07-02T01:06:22;17.30;99.90
19813;DHT22;10066;48.108;11.448;2023-07-02T01:08:51;17.40;99.90
19813;DHT22;10066;48.108;11.448;2023-07-02T01:11:20;17.30;99.90
19813;DHT22;10066;48.108;11.448;2023-07-02T01:13:52;17.30;99.90
19813;DHT22;10066;48.108;11.448;2023-07-02T01:16:21;17.40;99.90
19813;DHT22;10066;48.108;11.448;2023-07-02T01:18:50;17.30;99.90
19813;DHT22;10066;48.108;11.448;2023-07-02T01:21:22;17.40;99.90
19813;DHT22;10066;48.108;11.448;2023-07-02T01:23:50;17.40;99.90
19813;DHT22;10066;48.108;11.448;2023-07-02T01:26:18;17.30;99.90
19813;DHT22;10066;48.108;11.448;2023-07-02T01:28:45;17.30;99.90
19813;DHT22;10066;48.108;11.448;2023-07-02T01:31:12;17.40;99.90
19813;DHT22;10066;48.108;11.448;2023-07-02T01:33:39;17.30;99.90
19813;DHT22;10066;48.108;11.448;2023-07-02T01:36:06;17.30;99.90
19813;DHT22;10066;48.108;11.448;2023-07-02T01:38:34;17.30;99.90
19813;DHT22;10066;48.108;11.448;2023-07-02T01:41:01;17.30;99.90
19813;DHT22;10066;48.108;11.448;2023-07-02T01:43:28;17.30;99.90
19813;DHT22;10066;48.108;11.448;2023-07-02T01:45:56;17.30;99.90
19813;DHT22;10066;48.108;11.448;2023-07-02T01:48:23;17.30;99.90
19813;DHT22;10066;48.108;11.448;2023-07-02T01:50:50;17.30;99.90
19813;DHT22;10066;48.108;11.448;2023-07-02T01:53:17;17.20;99.90
19813;DHT22;10066;48.108;11.448;2023-07-02T01:55:45;17.20;99.90
19813;DHT22;10066;48.108;11.448;2023-07-02T01:58:12;17.20;99.90
19813;DHT22;10066;48.108;11.448;2023-07-02T02:00:39;17.20;99.90
19813;DHT22;10066;48.108;11.448;2023-07-02T02:03:06;17.20;99.90
19813;DHT22;10066;48.108;11.448;2023-07-02T02:05:33;17.20;99.90
19813;DHT22;10066;48.108;11.448;2023-07-02T02:08:00;17.20;99.90
19813;DHT22;10066;48.108;11.448;2023-07-02T02:10:27;17.20;99.90
19813;DHT22;10066;48.108;11.448;2023-07-02T02:12:56;17.10;99.90
19813;DHT22;10066;48.108;11.448;2023-07-02T02:15:22;17.00;99.90
19813;DHT22;10066;48.108;11.448;2023-07-02T02:17:49;17.00;99.90
19813;DHT22;10066;48.108;11.448;2023-07-02T02:20:16;16.90;99.90
19813;DHT22;10066;48.108;11.448;2023-07-02T02:22:43;16.80;99.90
19813;DHT22;10066;48.108;11.448;2023-07-02T02:25:10;16.70;99.90
19813;DHT22;10066;48.108;11.448;2023-07-02T02:27:37;16.60;99.90
19813;DHT22;10066;48.108;11.448;2023-07-02T02:30:07;16.50;99.90
19813;DHT22;10066;48.108;11.448;2023-07-02T02:32:34;16.50;99.90
19813;DHT22;10066;48.108;11.448;2023-07-02T02:35:03;16.50;99.90
19813;DHT22;10066;48.108;11.448;2023-07-02T02:37:30;16.50;99.90
19813;DHT22;10066;48.108;11.448;2023-07-02T02:39:57;16.50;99.90
19813;DHT22;10066;48.108;11.448;2023-07-02T02:42:25;16.60;99.90
19813;DHT22;10066;48.108;11.448;2023-07-02T02:44:52;16.60;99.90
19813;DHT22;10066;48.108;11.448;2023-07-02T02:47:20;16.60;99.90
19813;DHT22;10066;48.108;11.448;2023-07-02T02:49:47;16.70;99.90
19813;DHT22;10066;48.108;11.448;2023-07-02T02:52:14;16.80;99.90
19813;DHT22;10066;48.108;11.448;2023-07-02T02:54:41;16.80;99.90
19813;DHT22;10066;48.108;11.448;2023-07-02T02:57:08;16.80;99.90
19813;DHT22;10066;48.108;11.448;2023-07-02T02:59:35;16.90;99.90
19813;DHT22;10066;48.108;11.448;2023-07-02T03:02:03;16.90;99.90
19813;DHT22;10066;48.108;11.448;2023-07-02T03:04:31;17.00;99.90
19813;DHT22;10066;48.108;11.448;2023-07-02T03:06:59;17.00;99.90
19813;DHT22;10066;48.108;11.448;2023-07-02T03:09:26;17.10;99.90
19813;DHT22;10066;48.108;11.448;2023-07-02T03:11:52;17.10;99.90
19813;DHT22;10066;48.108;11.448;2023-07-02T03:14:19;17.10;99.90
19813;DHT22;10066;48.108;11.448;2023-07-02T03:16:46;17.20;99.90
19813;DHT22;10066;48.108;11.448;2023-07-02T03:19:13;17.20;99.90
19813;DHT22;10066;48.108;11.448;2023-07-02T03:21:43;17.30;99.90
19813;DHT22;10066;48.108;11.448;2023-07-02T03:24:10;17.30;99.90
19813;DHT22;10066;48.108;11.448;2023-07-02T03:26:39;17.30;99.90
19813;DHT22;10066;48.108;11.448;2023-07-02T03:29:06;17.30;99.90
19813;DHT22;10066;48.108;11.448;2023-07-02T03:31:33;17.30;99.90
19813;DHT22;10066;48.108;11.448;2023-07-02T03:34:02;17.20;99.90
19813;DHT22;10066;48.108;11.448;2023-07-02T03:36:29;16.70;99.90
19813;DHT22;10066;48.108;11.448;2023-07-02T03:38:58;16.20;99.90
19813;DHT22;10066;48.108;11.448;2023-07-02T03:41:25;15.80;99.90
19813;DHT22;10066;48.108;11.448;2023-07-02T03:43:51;15.60;99.90
19813;DHT22;10066;48.108;11.448;2023-07-02T03:46:18;15.30;99.90
19813;DHT22;10066;48.108;11.448;2023-07-02T03:48:45;15.20;99.90
19813;DHT22;10066;48.108;11.448;2023-07-02T03:51:12;15.00;99.90
19813;DHT22;10066;48.108;11.448;2023-07-02T03:53:39;14.80;99.90
19813;DHT22;10066;48.108;11.448;2023-07-02T03:56:08;14.70;99.90
19813;DHT22;10066;48.108;11.448;2023-07-02T03:58:35;14.60;99.90
19813;DHT22;10066;48.108;11.448;2023-07-02T04:01:02;14.50;99.90
19813;DHT22;10066;48.108;11.448;2023-07-02T04:03:29;14.50;99.90
19813;DHT22;10066;48.108;11.448;2023-07-02T04:05:56;14.50;99.90
19813;DHT22;10066;48.108;11.448;2023-07-02T04:08:23;14.40;99.90
19813;DHT22;10066;48.108;11.448;2023-07-02T04:10:50;14.40;99.90
19813;DHT22;10066;48.108;11.448;2023-07-02T04:13:19;14.30;99.90
19813;DHT22;10066;48.108;11.448;2023-07-02T04:15:46;14.30;99.90
19813;DHT22;10066;48.108;11.448;2023-07-02T04:18:13;14.40;99.90
19813;DHT22;10066;48.108;11.448;2023-07-02T04:20:42;14.40;99.90
19813;DHT22;10066;48.108;11.448;2023-07-02T04:23:09;14.50;99.90
19813;DHT22;10066;48.108;11.448;2023-07-02T04:25:35;14.50;99.90
19813;DHT22;10066;48.108;11.448;2023-07-02T04:28:03;14.50;99.90
19813;DHT22;10066;48.108;11.448;2023-07-02T04:30:31;14.60;99.90
19813;DHT22;10066;48.108;11.448;2023-07-02T04:32:58;14.60;99.90
19813;DHT22;10066;48.108;11.448;2023-07-02T04:35:25;14.60;99.90
19813;DHT22;10066;48.108;11.448;2023-07-02T04:37:52;14.70;99.90
19813;DHT22;10066;48.108;11.448;2023-07-02T04:40:19;14.70;99.90
19813;DHT22;10066;48.108;11.448;2023-07-02T04:42:46;14.70;99.90
19813;DHT22;10066;48.108;11.448;2023-07-02T04:45:13;14.70;99.90
19813;DHT22;10066;48.108;11.448;2023-07-02T04:47:44;14.70;99.90
19813;DHT22;10066;48.108;11.448;2023-07-02T04:50:11;14.80;99.90
19813;DHT22;10066;48.108;11.448;2023-07-02T04:52:38;14.90;99.90
19813;DHT22;10066;48.108;11.448;2023-07-02T04:55:06;14.90;99.90
19813;DHT22;10066;48.108;11.448;2023-07-02T04:57:33;14.90;99.90
19813;DHT22;10066;48.108;11.448;2023-07-02T05:00:00;15.00;99.90
19813;DHT22;10066;48.108;11.448;2023-07-02T05:02:28;15.00;99.90
19813;DHT22;10066;48.108;11.448;2023-07-02T05:04:57;15.00;99.90
19813;DHT22;10066;48.108;11.448;2023-07-02T05:07:23;15.10;99.90
19813;DHT22;10066;48.108;11.448;2023-07-02T05:09:51;15.10;99.90
19813;DHT22;10066;48.108;11.448;2023-07-02T05:12:18;15.10;99.90
19813;DHT22;10066;48.108;11.448;2023-07-02T05:14:46;15.10;99.90
19813;DHT22;10066;48.108;11.448;2023-07-02T05:17:15;15.10;99.90
19813;DHT22;10066;48.108;11.448;2023-07-02T05:19:43;15.10;99.90
19813;DHT22;10066;48.108;11.448;2023-07-02T05:22:12;15.10;99.90
19813;DHT22;10066;48.108;11.448;2023-07-02T05:24:39;15.10;99.90
19813;DHT22;10066;48.108;11.448;2023-07-02T05:27:07;15.10;99.90
19813;DHT22;10066;48.108;11.448;2023-07-02T05:29:33;15.20;99.90
19813;DHT22;10066;48.108;11.448;2023-07-02T05:32:00;15.20;99.90
19813;DHT22;10066;48.108;11.448;2023-07-02T05:34:27;15.20;99.90
19813;DHT22;10066;48.108;11.448;2023-07-02T05:36:54;15.20;99.90
19813;DHT22;10066;48.108;11.448;2023-07-02T05:39:23;15.30;99.90
19813;DHT22;10066;48.108;11.448;2023-07-02T05:41:50;15.30;99.90
19813;DHT22;10066;48.108;11.448;2023-07-02T05:44:16;15.30;99.90
19813;DHT22;10066;48.108;11.448;2023-07-02T05:46:44;15.40;99.90
19813;DHT22;10066;48.108;11.448;2023-07-02T05:49:11;15.50;99.90
19813;DHT22;10066;48.108;11.448;2023-07-02T05:51:38;15.60;99.90
19813;DHT22;10066;48.108;11.448;2023-07-02T05:54:05;15.60;99.90
19813;DHT22;10066;48.108;11.448;2023-07-02T05:56:33;15.70;99.90
19813;DHT22;10066;48.108;11.448;2023-07-02T05:59:00;15.80;99.90
19813;DHT22;10066;48.108;11.448;2023-07-02T06:01:27;15.90;99.90
19813;DHT22;10066;48.108;11.448;2023-07-02T06:03:54;16.00;99.90
19813;DHT22;10066;48.108;11.448;2023-07-02T06:06:21;16.10;99.90
19813;DHT22;10066;48.108;11.448;2023-07-02T06:08:49;16.10;99.90
19813;DHT22;10066;48.108;11.448;2023-07-02T06:11:18;16.20;99.90
19813;DHT22;10066;48.108;11.448;2023-07-02T06:13:46;16.20;99.90
19813;DHT22;10066;48.108;11.448;2023-07-02T06:16:14;16.20;99.90
19813;DHT22;10066;48.108;11.448;2023-07-02T06:18:41;16.20;99.90
19813;DHT22;10066;48.108;11.448;2023-07-02T06:21:07;16.20;99.90
19813;DHT22;10066;48.108;11.448;2023-07-02T06:23:41;16.20;99.90
19813;DHT22;10066;48.108;11.448;2023-07-02T06:26:08;16.20;99.90
19813;DHT22;10066;48.108;11.448;2023-07-02T06:28:35;16.20;99.90
19813;DHT22;10066;48.108;11.448;2023-07-02T06:31:04;16.20;99.90
19813;DHT22;10066;48.108;11.448;2023-07-02T06:33:31;16.10;99.90
19813;DHT22;10066;48.108;11.448;2023-07-02T06:35:58;16.10;99.90
19813;DHT22;10066;48.108;11.448;2023-07-02T06:38:25;16.10;99.90
19813;DHT22;10066;48.108;11.448;2023-07-02T06:40:52;16.10;99.90
19813;DHT22;10066;48.108;11.448;2023-07-02T06:43:19;16.00;99.90
19813;DHT22;10066;48.108;11.448;2023-07-02T06:45:45;16.00;99.90
19813;DHT22;10066;48.108;11.448;2023-07-02T06:48:14;16.00;99.90
19813;DHT22;10066;48.108;11.448;2023-07-02T06:50:44;16.00;99.90
19813;DHT22;10066;48.108;11.448;2023-07-02T06:53:12;16.00;99.90
19813;DHT22;10066;48.108;11.448;2023-07-02T06:55:39;16.00;99.90
19813;DHT22;10066;48.108;11.448;2023-07-02T06:58:06;16.00;99.90
19813;DHT22;10066;48.108;11.448;2023-07-02T07:00:34;16.00;99.90
19813;DHT22;10066;48.108;11.448;2023-07-02T07:03:02;16.00;99.90
19813;DHT22;10066;48.108;11.448;2023-07-02T07:05:31;16.00;99.90
19813;DHT22;10066;48.108;11.448;2023-07-02T07:07:59;16.10;99.90
19813;DHT22;10066;48.108;11.448;2023-07-02T07:10:27;16.10;99.90
19813;DHT22;10066;48.108;11.448;2023-07-02T07:12:53;16.10;99.90
19813;DHT22;10066;48.108;11.448;2023-07-02T07:15:21;16.10;99.90
19813;DHT22;10066;48.108;11.448;2023-07-02T07:17:47;16.20;99.90
19813;DHT22;10066;48.108;11.448;2023-07-02T07:20:15;16.10;99.90
19813;DHT22;10066;48.108;11.448;2023-07-02T07:22:43;16.10;99.90
19813;DHT22;10066;48.108;11.448;2023-07-02T07:25:10;16.00;99.90
19813;DHT22;10066;48.108;11.448;2023-07-02T07:27:37;15.90;99.90
19813;DHT22;10066;48.108;11.448;2023-07-02T07:30:06;15.80;99.90
19813;DHT22;10066;48.108;11.448;2023-07-02T07:32:33;15.80;99.90
19813;DHT22;10066;48.108;11.448;2023-07-02T07:35:00;15.70;99.90
19813;DHT22;10066;48.108;11.448;2023-07-02T07:37:27;15.50;99.90
19813;DHT22;10066;48.108;11.448;2023-07-02T07:39:56;15.40;99.90
19813;DHT22;10066;48.108;11.448;2023-07-02T07:42:22;15.30;99.90
19813;DHT22;10066;48.108;11.448;2023-07-02T07:44:49;15.20;99.90
19813;DHT22;10066;48.108;11.448;2023-07-02T07:47:17;15.20;99.90
19813;DHT22;10066;48.108;11.448;2023-07-02T07:49:44;15.20;99.90
19813;DHT22;10066;48.108;11.448;2023-07-02T07:52:11;15.20;99.90
19813;DHT22;10066;48.108;11.448;2023-07-02T07:54:39;15.20;99.90
19813;DHT22;10066;48.108;11.448;2023-07-02T07:57:07;15.20;99.90
19813;DHT22;10066;48.108;11.448;2023-07-02T07:59:34;15.30;99.90
19813;DHT22;10066;48.108;11.448;2023-07-02T08:02:01;15.20;99.90
19813;DHT22;10066;48.108;11.448;2023-07-02T08:04:28;15.20;99.90
19813;DHT22;10066;48.108;11.448;2023-07-02T08:06:55;15.30;99.90
19813;DHT22;10066;48.108;11.448;2023-07-02T08:09:23;15.30;99.90
19813;DHT22;10066;48.108;11.448;2023-07-02T08:11:50;15.40;99.90
19813;DHT22;10066;48.108;11.448;2023-07-02T08:14:18;15.50;99.90
19813;DHT22;10066;48.108;11.448;2023-07-02T08:16:45;15.60;99.90
19813;DHT22;10066;48.108;11.448;2023-07-02T08:19:12;15.80;99.90
19813;DHT22;10066;48.108;11.448;2023-07-02T08:21:39;16.00;99.90
19813;DHT22;10066;48.108;11.448;2023-07-02T08:24:06;16.30;99.90
19813;DHT22;10066;48.108;11.448;2023-07-02T08:26:33;16.50;99.90
19813;DHT22;10066;48.108;11.448;2023-07-02T08:29:00;16.80;99.90
19813;DHT22;10066;48.108;11.448;2023-07-02T08:31:29;17.00;99.90
19813;DHT22;10066;48.108;11.448;2023-07-02T08:33:56;17.10;99.90
19813;DHT22;10066;48.108;11.448;2023-07-02T08:36:22;17.20;99.90
19813;DHT22;10066;48.108;11.448;2023-07-02T08:38:49;17.20;99.90
19813;DHT22;10066;48.108;11.448;2023-07-02T08:41:16;17.20;99.90
19813;DHT22;10066;48.108;11.448;2023-07-02T08:43:43;17.20;99.90
19813;DHT22;10066;48.108;11.448;2023-07-02T08:46:11;17.10;99.90
19813;DHT22;10066;48.108;11.448;2023-07-02T08:48:40;17.10;99.90
19813;DHT22;10066;48.108;11.448;2023-07-02T08:51:07;17.10;99.90
19813;DHT22;10066;48.108;11.448;2023-07-02T08:53:34;17.00;99.90
19813;DHT22;10066;48.108;11.448;2023-07-02T08:56:02;17.10;99.90
19813;DHT22;10066;48.108;11.448;2023-07-02T08:58:29;17.00;99.90
19813;DHT22;10066;48.108;11.448;2023-07-02T09:01:07;17.00;99.90
19813;DHT22;10066;48.108;11.448;2023-07-02T09:03:40;17.00;99.90
19813;DHT22;10066;48.108;11.448;2023-07-02T09:06:08;17.00;99.90
19813;DHT22;10066;48.108;11.448;2023-07-02T09:08:35;17.00;99.90
19813;DHT22;10066;48.108;11.448;2023-07-02T09:11:08;16.90;99.90
19813;DHT22;10066;48.108;11.448;2023-07-02T09:13:46;16.90;99.90
19813;DHT22;10066;48.108;11.448;2023-07-02T09:16:22;16.90;99.90
19813;DHT22;10066;48.108;11.448;2023-07-02T09:19:16;16.90;99.90
19813;DHT22;10066;48.108;11.448;2023-07-02T09:21:45;16.90;99.90
19813;DHT22;10066;48.108;11.448;2023-07-02T09:24:14;16.90;99.90
19813;DHT22;10066;48.108;11.448;2023-07-02T09:26:43;16.80;99.90
19813;DHT22;10066;48.108;11.448;2023-07-02T09:29:22;16.80;99.90
19813;DHT22;10066;48.108;11.448;2023-07-02T09:31:49;16.80;99.90
19813;DHT22;10066;48.108;11.448;2023-07-02T09:34:17;16.80;99.90
19813;DHT22;10066;48.108;11.448;2023-07-02T09:36:44;16.90;99.90
19813;DHT22;10066;48.108;11.448;2023-07-02T09:39:12;16.90;99.90
19813;DHT22;10066;48.108;11.448;2023-07-02T09:41:40;16.90;99.90
19813;DHT22;10066;48.108;11.448;2023-07-02T09:44:08;17.00;99.90
19813;DHT22;10066;48.108;11.448;2023-07-02T09:46:37;17.00;99.90
19813;DHT22;10066;48.108;11.448;2023-07-02T09:49:09;17.00;99.90
19813;DHT22;10066;48.108;11.448;2023-07-02T09:51:39;17.10;99.90
19813;DHT22;10066;48.108;11.448;2023-07-02T09:54:06;17.20;99.90
19813;DHT22;10066;48.108;11.448;2023-07-02T09:56:34;17.30;99.90
19813;DHT22;10066;48.108;11.448;2023-07-02T09:59:01;17.40;99.90
19813;DHT22;10066;48.108;11.448;2023-07-02T10:01:28;17.50;99.90
19813;DHT22;10066;48.108;11.448;2023-07-02T10:03:55;17.60;99.90
19813;DHT22;10066;48.108;11.448;2023-07-02T10:06:21;17.70;99.90
19813;DHT22;10066;48.108;11.448;2023-07-02T10:08:56;17.70;99.90
19813;DHT22;10066;48.108;11.448;2023-07-02T10:11:33;17.70;99.90
19813;DHT22;10066;48.108;11.448;2023-07-02T10:14:01;17.60;99.90
19813;DHT22;10066;48.108;11.448;2023-07-02T10:16:27;17.60;99.90
19813;DHT22;10066;48.108;11.448;2023-07-02T10:19:08;17.70;99.90
19813;DHT22;10066;48.108;11.448;2023-07-02T10:21:35;17.80;99.90
19813;DHT22;10066;48.108;11.448;2023-07-02T10:24:11;17.90;99.90
19813;DHT22;10066;48.108;11.448;2023-07-02T10:26:38;18.00;99.90
19813;DHT22;10066;48.108;11.448;2023-07-02T10:29:06;18.30;99.90
19813;DHT22;10066;48.108;11.448;2023-07-02T10:31:33;18.60;99.90
19813;DHT22;10066;48.108;11.448;2023-07-02T10:34:00;18.80;99.90
19813;DHT22;10066;48.108;11.448;2023-07-02T10:36:27;19.00;99.90
19813;DHT22;10066;48.108;11.448;2023-07-02T10:39:01;19.20;99.90
19813;DHT22;10066;48.108;11.448;2023-07-02T10:41:31;19.50;99.90
19813;DHT22;10066;48.108;11.448;2023-07-02T10:44:06;19.70;99.90
19813;DHT22;10066;48.108;11.448;2023-07-02T10:46:33;20.10;99.90
19813;DHT22;10066;48.108;11.448;2023-07-02T10:49:00;20.40;99.90
19813;DHT22;10066;48.108;11.448;2023-07-02T10:51:28;20.70;99.90
19813;DHT22;10066;48.108;11.448;2023-07-02T10:53:58;20.80;99.90
19813;DHT22;10066;48.108;11.448;2023-07-02T10:56:26;20.80;99.90
19813;DHT22;10066;48.108;11.448;2023-07-02T10:58:55;20.80;99.90
19813;DHT22;10066;48.108;11.448;2023-07-02T11:01:23;20.90;99.90
19813;DHT22;10066;48.108;11.448;2023-07-02T11:03:56;21.10;99.90
19813;DHT22;10066;48.108;11.448;2023-07-02T11:06:23;21.10;99.90
19813;DHT22;10066;48.108;11.448;2023-07-02T11:08:51;21.20;99.90
19813;DHT22;10066;48.108;11.448;2023-07-02T11:11:18;21.20;99.90
19813;DHT22;10066;48.108;11.448;2023-07-02T11:13:45;21.20;99.90
19813;DHT22;10066;48.108;11.448;2023-07-02T11:16:22;21.20;99.90
19813;DHT22;10066;48.108;11.448;2023-07-02T11:18:52;21.20;99.90
19813;DHT22;10066;48.108;11.448;2023-07-02T11:21:18;21.20;99.90
19813;DHT22;10066;48.108;11.448;2023-07-02T11:23:45;21.10;99.90
19813;DHT22;10066;48.108;11.448;2023-07-02T11:26:12;21.10;99.90
19813;DHT22;10066;48.108;11.448;2023-07-02T11:28:48;21.20;99.90
19813;DHT22;10066;48.108;11.448;2023-07-02T11:31:26;21.40;99.90
19813;DHT22;10066;48.108;11.448;2023-07-02T11:33:53;21.50;99.90
19813;DHT22;10066;48.108;11.448;2023-07-02T11:36:22;21.70;99.90
19813;DHT22;10066;48.108;11.448;2023-07-02T11:38:50;21.90;99.90
19813;DHT22;10066;48.108;11.448;2023-07-02T11:41:18;22.00;99.90
19813;DHT22;10066;48.108;11.448;2023-07-02T11:43:45;22.20;99.90
19813;DHT22;10066;48.108;11.448;2023-07-02T11:46:13;22.40;99.90
19813;DHT22;10066;48.108;11.448;2023-07-02T11:48:42;22.50;99.90
19813;DHT22;10066;48.108;11.448;2023-07-02T11:51:09;22.50;99.90
19813;DHT22;10066;48.108;11.448;2023-07-02T11:53:36;22.50;99.90
19813;DHT22;10066;48.108;11.448;2023-07-02T11:56:03;22.40;99.90
19813;DHT22;10066;48.108;11.448;2023-07-02T11:58:29;22.40;99.90
19813;DHT22;10066;48.108;11.448;2023-07-02T12:00:56;22.40;99.90
19813;DHT22;10066;48.108;11.448;2023-07-02T12:03:24;22.50;99.90
19813;DHT22;10066;48.108;11.448;2023-07-02T12:05:53;22.60;99.90
19813;DHT22;10066;48.108;11.448;2023-07-02T12:08:20;22.50;99.90
19813;DHT22;10066;48.108;11.448;2023-07-02T12:10:47;22.40;99.90
19813;DHT22;10066;48.108;11.448;2023-07-02T12:13:14;22.30;99.90
19813;DHT22;10066;48.108;11.448;2023-07-02T12:15:42;22.40;99.90
19813;DHT22;10066;48.108;11.448;2023-07-02T12:18:09;22.50;99.90
19813;DHT22;10066;48.108;11.448;2023-07-02T12:20:36;22.60;99.90
19813;DHT22;10066;48.108;11.448;2023-07-02T12:23:05;22.80;99.90
19813;DHT22;10066;48.108;11.448;2023-07-02T12:25:33;22.90;99.90
19813;DHT22;10066;48.108;11.448;2023-07-02T12:28:01;22.90;99.90
19813;DHT22;10066;48.108;11.448;2023-07-02T12:30:28;22.80;99.90
19813;DHT22;10066;48.108;11.448;2023-07-02T12:32:56;22.70;99.90
19813;DHT22;10066;48.108;11.448;2023-07-02T12:35:23;22.70;99.90
19813;DHT22;10066;48.108;11.448;2023-07-02T12:37:51;22.80;99.90
19813;DHT22;10066;48.108;11.448;2023-07-02T12:40:20;22.90;99.90
19813;DHT22;10066;48.108;11.448;2023-07-02T12:42:48;23.10;99.90
19813;DHT22;10066;48.108;11.448;2023-07-02T12:45:16;23.20;99.90
19813;DHT22;10066;48.108;11.448;2023-07-02T12:47:43;23.50;99.90
19813;DHT22;10066;48.108;11.448;2023-07-02T12:50:10;23.60;99.90
19813;DHT22;10066;48.108;11.448;2023-07-02T12:55:05;24.10;99.90
19813;DHT22;10066;48.108;11.448;2023-07-02T12:57:34;24.30;99.90
19813;DHT22;10066;48.108;11.448;2023-07-02T13:00:02;24.20;99.90
19813;DHT22;10066;48.108;11.448;2023-07-02T13:02:31;24.30;99.90
19813;DHT22;10066;48.108;11.448;2023-07-02T13:04:58;24.30;99.90
19813;DHT22;10066;48.108;11.448;2023-07-02T13:07:25;24.20;99.90
19813;DHT22;10066;48.108;11.448;2023-07-02T13:09:55;24.10;99.90
19813;DHT22;10066;48.108;11.448;2023-07-02T13:12:22;23.90;99.90
19813;DHT22;10066;48.108;11.448;2023-07-02T13:14:51;24.00;99.90
19813;DHT22;10066;48.108;11.448;2023-07-02T13:17:18;24.10;99.90
19813;DHT22;10066;48.108;11.448;2023-07-02T13:19:45;24.30;99.90
19813;DHT22;10066;48.108;11.448;2023-07-02T13:22:12;24.30;99.90
19813;DHT22;10066;48.108;11.448;2023-07-02T13:24:39;24.30;99.90
19813;DHT22;10066;48.108;11.448;2023-07-02T13:27:12;24.40;99.90
19813;DHT22;10066;48.108;11.448;2023-07-02T13:29:40;24.40;99.90
19813;DHT22;10066;48.108;11.448;2023-07-02T13:32:09;24.30;99.90
19813;DHT22;10066;48.108;11.448;2023-07-02T13:34:36;24.30;99.90
19813;DHT22;10066;48.108;11.448;2023-07-02T13:37:04;24.30;99.90
19813;DHT22;10066;48.108;11.448;2023-07-02T13:39:32;24.30;99.90
19813;DHT22;10066;48.108;11.448;2023-07-02T13:41:59;24.30;99.90
19813;DHT22;10066;48.108;11.448;2023-07-02T13:44:26;24.20;99.90
19813;DHT22;10066;48.108;11.448;2023-07-02T13:46:53;24.10;99.90
19813;DHT22;10066;48.108;11.448;2023-07-02T13:49:21;24.00;99.90
19813;DHT22;10066;48.108;11.448;2023-07-02T13:51:48;23.90;99.90
19813;DHT22;10066;48.108;11.448;2023-07-02T13:54:16;23.90;99.90
19813;DHT22;10066;48.108;11.448;2023-07-02T13:56:44;23.90;99.90
19813;DHT22;10066;48.108;11.448;2023-07-02T13:59:14;24.00;99.90
19813;DHT22;10066;48.108;11.448;2023-07-02T14:01:41;24.10;99.90
19813;DHT22;10066;48.108;11.448;2023-07-02T14:04:08;24.10;99.90
19813;DHT22;10066;48.108;11.448;2023-07-02T14:06:35;24.20;99.90
19813;DHT22;10066;48.108;11.448;2023-07-02T14:09:03;24.20;99.90
19813;DHT22;10066;48.108;11.448;2023-07-02T14:11:32;24.20;99.90
19813;DHT22;10066;48.108;11.448;2023-07-02T14:13:59;24.20;99.90
19813;DHT22;10066;48.108;11.448;2023-07-02T14:16:28;24.20;99.90
19813;DHT22;10066;48.108;11.448;2023-07-02T14:18:54;24.20;99.90
19813;DHT22;10066;48.108;11.448;2023-07-02T14:21:22;24.20;99.90
19813;DHT22;10066;48.108;11.448;2023-07-02T14:23:49;24.20;99.90
19813;DHT22;10066;48.108;11.448;2023-07-02T14:26:16;24.30;99.90
19813;DHT22;10066;48.108;11.448;2023-07-02T14:28:44;24.30;99.90
19813;DHT22;10066;48.108;11.448;2023-07-02T14:31:11;24.30;99.90
19813;DHT22;10066;48.108;11.448;2023-07-02T14:33:40;24.40;99.90
19813;DHT22;10066;48.108;11.448;2023-07-02T14:36:07;24.40;99.90
19813;DHT22;10066;48.108;11.448;2023-07-02T14:38:34;24.40;99.90
19813;DHT22;10066;48.108;11.448;2023-07-02T14:41:01;24.30;99.90
19813;DHT22;10066;48.108;11.448;2023-07-02T14:43:30;24.30;99.90
19813;DHT22;10066;48.108;11.448;2023-07-02T14:45:59;24.20;99.90
19813;DHT22;10066;48.108;11.448;2023-07-02T14:48:27;24.20;99.90
19813;DHT22;10066;48.108;11.448;2023-07-02T14:50:57;24.20;99.90
19813;DHT22;10066;48.108;11.448;2023-07-02T14:53:24;24.10;99.90
19813;DHT22;10066;48.108;11.448;2023-07-02T14:55:54;24.10;99.90
19813;DHT22;10066;48.108;11.448;2023-07-02T14:58:22;24.00;99.90
19813;DHT22;10066;48.108;11.448;2023-07-02T15:00:50;23.90;99.90
19813;DHT22;10066;48.108;11.448;2023-07-02T15:03:19;23.90;99.90
19813;DHT22;10066;48.108;11.448;2023-07-02T15:05:48;23.90;99.90
19813;DHT22;10066;48.108;11.448;2023-07-02T15:08:17;23.90;99.90
19813;DHT22;10066;48.108;11.448;2023-07-02T15:10:47;23.90;99.90
19813;DHT22;10066;48.108;11.448;2023-07-02T15:13:15;24.00;99.90
19813;DHT22;10066;48.108;11.448;2023-07-02T15:15:44;24.00;99.90
19813;DHT22;10066;48.108;11.448;2023-07-02T15:18:12;24.00;99.90
19813;DHT22;10066;48.108;11.448;2023-07-02T15:20:39;24.00;99.90
19813;DHT22;10066;48.108;11.448;2023-07-02T15:23:07;23.90;99.90